Back to Top

Language: 

My Weather Underground Personal Weather Station Historical Data with Graphs...

Delerius Weather Station Historical Data
Daily Summary for January 16, 2018 Units:  Both    English   Metric
« Previous Day
Next Day »
Daily Weekly Monthly Yearly Custom
  High: Low: Average:
Temperature: 39.6 °F /  4.2 °C 33.4 °F /  0.8 °C 36.6 °F /  2.6 °C
Dew Point: 36.1 °F /  2.3 °C 31.9 °F /  -0.1 °C 33.9 °F /  1.1 °C
Humidity: 94 % 85 % 90 %
Wind Speed: 21.0 mph /  33.8 km/h - 12.1 mph /  19.5 km/h
Wind Gust: 37.0 mph /  59.5 km/h - -
Wind:- - West
Pressure: 29.26 in /  990.7 hPa 29.16 in /  987.4 hPa -
Precipitation: 0.24 in /  6.1 mm    
Historical Graphs
 
 
Tabular Data for January 16, 2018
Time Temperature Dew Point Pressure Wind Wind Speed Wind Gust Humidity Rainfall Rate (Hourly) solar Conditions
00:31 37.9 °F /  3.3 °C 35.5 °F /  1.9 °C 29.17 in /  987.7 hPa West 8.0 mph /  12.9 km/h 14.0 mph /  22.5 km/h 91 % 0.02 in /  0.51 mm 0 W/m2
00:37 37.8 °F /  3.2 °C 35.6 °F /  2 °C 29.17 in /  987.7 hPa West 9.0 mph /  14.5 km/h 15.0 mph /  24.1 km/h 92 % 0.02 in /  0.51 mm 0 W/m2
01:13 37.9 °F /  3.3 °C 35.8 °F /  2.1 °C 29.17 in /  987.7 hPa WNW 9.0 mph /  14.5 km/h 14.0 mph /  22.5 km/h 92 % 0.02 in /  0.51 mm 0 W/m2
01:31 37.9 °F /  3.3 °C 36.1 °F /  2.3 °C 29.17 in /  987.7 hPa West 7.0 mph /  11.3 km/h 12.0 mph /  19.3 km/h 93 % 0.03 in /  0.76 mm 0 W/m2
01:42 37.9 °F /  3.3 °C 36.1 °F /  2.3 °C 29.17 in /  987.7 hPa West 13.0 mph /  20.9 km/h 22.0 mph /  35.4 km/h 93 % 0.04 in /  1.02 mm 0 W/m2
01:47 37.8 °F /  3.2 °C 35.6 °F /  2 °C 29.18 in /  988 hPa West 13.0 mph /  20.9 km/h 21.0 mph /  33.8 km/h 92 % 0.05 in /  1.27 mm 0 W/m2
01:58 37.2 °F /  2.9 °C 35.1 °F /  1.7 °C 29.18 in /  988 hPa West 13.0 mph /  20.9 km/h 21.0 mph /  33.8 km/h 92 % 0.04 in /  1.02 mm 0 W/m2
02:07 36.7 °F /  2.6 °C 34.6 °F /  1.4 °C 29.18 in /  988 hPa West 10.0 mph /  16.1 km/h 20.0 mph /  32.2 km/h 92 % 0.04 in /  1.02 mm 0 W/m2
02:32 36.1 °F /  2.3 °C 34.6 °F /  1.4 °C 29.17 in /  987.7 hPa West 7.0 mph /  11.3 km/h 12.0 mph /  19.3 km/h 94 % 0.05 in /  1.27 mm 0 W/m2
02:40 36.3 °F /  2.4 °C 34.8 °F /  1.6 °C 29.17 in /  987.7 hPa West 9.0 mph /  14.5 km/h 16.0 mph /  25.7 km/h 94 % 0.04 in /  1.02 mm 0 W/m2
02:54 36.3 °F /  2.4 °C 34.5 °F /  1.4 °C 29.17 in /  987.7 hPa West 13.0 mph /  20.9 km/h 22.0 mph /  35.4 km/h 93 % 0.02 in /  0.51 mm 0 W/m2
03:02 36.7 °F /  2.6 °C 34.6 °F /  1.4 °C 29.16 in /  987.4 hPa West 13.0 mph /  20.9 km/h 21.0 mph /  33.8 km/h 92 % 0.02 in /  0.51 mm 0 W/m2
03:10 36.9 °F /  2.7 °C 34.5 °F /  1.4 °C 29.16 in /  987.4 hPa West 10.0 mph /  16.1 km/h 15.0 mph /  24.1 km/h 91 % 0.02 in /  0.51 mm 0 W/m2
03:30 37.0 °F /  2.8 °C 34.4 °F /  1.3 °C 29.16 in /  987.4 hPa West 11.0 mph /  17.7 km/h 20.0 mph /  32.2 km/h 90 % 0.00 in /  0 mm 0 W/m2
03:36 37.2 °F /  2.9 °C 34.6 °F /  1.4 °C 29.16 in /  987.4 hPa West 14.0 mph /  22.5 km/h 23.0 mph /  37 km/h 90 % 0.00 in /  0 mm 0 W/m2
03:51 37.4 °F /  3 °C 34.7 °F /  1.5 °C 29.16 in /  987.4 hPa West 13.0 mph /  20.9 km/h 21.0 mph /  33.8 km/h 90 % 0.00 in /  0 mm 0 W/m2
03:59 37.6 °F /  3.1 °C 34.9 °F /  1.6 °C 29.16 in /  987.4 hPa West 13.0 mph /  20.9 km/h 23.0 mph /  37 km/h 90 % 0.00 in /  0 mm 0 W/m2
04:07 37.6 °F /  3.1 °C 34.6 °F /  1.4 °C 29.16 in /  987.4 hPa West 13.0 mph /  20.9 km/h 18.0 mph /  29 km/h 89 % 0.00 in /  0 mm 0 W/m2
04:31 37.2 °F /  2.9 °C 34.3 °F /  1.3 °C 29.16 in /  987.4 hPa West 12.0 mph /  19.3 km/h 16.0 mph /  25.7 km/h 89 % 0.00 in /  0 mm 0 W/m2
04:47 37.6 °F /  3.1 °C 34.9 °F /  1.6 °C 29.17 in /  987.7 hPa WNW 12.0 mph /  19.3 km/h 20.0 mph /  32.2 km/h 90 % 0.00 in /  0 mm 0 W/m2
05:01 37.8 °F /  3.2 °C 35.1 °F /  1.7 °C 29.18 in /  988 hPa West 13.0 mph /  20.9 km/h 20.0 mph /  32.2 km/h 90 % 0.01 in /  0.25 mm 0 W/m2
05:07 37.8 °F /  3.2 °C 34.8 °F /  1.6 °C 29.18 in /  988 hPa WNW 11.0 mph /  17.7 km/h 15.0 mph /  24.1 km/h 89 % 0.01 in /  0.25 mm 0 W/m2
05:15 37.8 °F /  3.2 °C 34.8 °F /  1.6 °C 29.18 in /  988 hPa West 15.0 mph /  24.1 km/h 27.0 mph /  43.5 km/h 89 % 0.01 in /  0.25 mm 0 W/m2
05:27 37.6 °F /  3.1 °C 34.3 °F /  1.3 °C 29.19 in /  988.4 hPa West 21.0 mph /  33.8 km/h 37.0 mph /  59.5 km/h 88 % 0.01 in /  0.25 mm 0 W/m2
05:47 36.3 °F /  2.4 °C 33.9 °F /  1.1 °C 29.19 in /  988.4 hPa West 8.0 mph /  12.9 km/h 16.0 mph /  25.7 km/h 91 % 0.02 in /  0.51 mm 0 W/m2
06:28 37.6 °F /  3.1 °C 34.1 °F /  1.2 °C 29.19 in /  988.4 hPa West 13.0 mph /  20.9 km/h 21.0 mph /  33.8 km/h 87 % 0.02 in /  0.51 mm 0 W/m2
06:33 37.6 °F /  3.1 °C 33.8 °F /  1 °C 29.20 in /  988.7 hPa West 12.0 mph /  19.3 km/h 21.0 mph /  33.8 km/h 86 % 0.01 in /  0.25 mm 0 W/m2
06:39 37.6 °F /  3.1 °C 33.8 °F /  1 °C 29.20 in /  988.7 hPa West 17.0 mph /  27.4 km/h 27.0 mph /  43.5 km/h 86 % 0.01 in /  0.25 mm 0 W/m2
06:45 37.0 °F /  2.8 °C 33.5 °F /  0.8 °C 29.19 in /  988.4 hPa WNW 14.0 mph /  22.5 km/h 25.0 mph /  40.2 km/h 87 % 0.01 in /  0.25 mm 0 W/m2
06:53 36.7 °F /  2.6 °C 33.5 °F /  0.8 °C 29.20 in /  988.7 hPa West 12.0 mph /  19.3 km/h 21.0 mph /  33.8 km/h 88 % 0.01 in /  0.25 mm 0 W/m2
07:00 36.9 °F /  2.7 °C 33.6 °F /  0.9 °C 29.20 in /  988.7 hPa WSW 13.0 mph /  20.9 km/h 20.0 mph /  32.2 km/h 88 % 0.01 in /  0.25 mm 0 W/m2
07:05 36.7 °F /  2.6 °C 33.5 °F /  0.8 °C 29.20 in /  988.7 hPa West 13.0 mph /  20.9 km/h 22.0 mph /  35.4 km/h 88 % 0.01 in /  0.25 mm 0 W/m2
07:11 36.5 °F /  2.5 °C 33.6 °F /  0.9 °C 29.21 in /  989.1 hPa West 11.0 mph /  17.7 km/h 18.0 mph /  29 km/h 89 % 0.00 in /  0 mm 0 W/m2
07:27 36.7 °F /  2.6 °C 33.7 °F /  0.9 °C 29.21 in /  989.1 hPa West 14.0 mph /  22.5 km/h 21.0 mph /  33.8 km/h 89 % 0.00 in /  0 mm 0 W/m2
07:33 37.0 °F /  2.8 °C 34.1 °F /  1.2 °C 29.21 in /  989.1 hPa West 15.0 mph /  24.1 km/h 24.0 mph /  38.6 km/h 89 % 0.00 in /  0 mm 0 W/m2
07:48 37.0 °F /  2.8 °C 34.1 °F /  1.2 °C 29.20 in /  988.7 hPa West 10.0 mph /  16.1 km/h 16.0 mph /  25.7 km/h 89 % 0.00 in /  0 mm 0 W/m2
07:55 37.2 °F /  2.9 °C 34.0 °F /  1.1 °C 29.21 in /  989.1 hPa West 12.0 mph /  19.3 km/h 19.0 mph /  30.6 km/h 88 % 0.00 in /  0 mm 0 W/m2
08:02 37.4 °F /  3 °C 33.9 °F /  1.1 °C 29.22 in /  989.4 hPa West 13.0 mph /  20.9 km/h 24.0 mph /  38.6 km/h 87 % 0.00 in /  0 mm 0 W/m2
08:20 37.8 °F /  3.2 °C 33.9 °F /  1.1 °C 29.22 in /  989.4 hPa West 12.0 mph /  19.3 km/h 18.0 mph /  29 km/h 86 % 0.00 in /  0 mm 44 W/m2
08:47 37.9 °F /  3.3 °C 34.1 °F /  1.2 °C 29.23 in /  989.7 hPa West 19.0 mph /  30.6 km/h 29.0 mph /  46.7 km/h 86 % 0.00 in /  0 mm 11 W/m2
08:53 37.6 °F /  3.1 °C 33.8 °F /  1 °C 29.23 in /  989.7 hPa West 11.0 mph /  17.7 km/h 18.0 mph /  29 km/h 86 % 0.00 in /  0 mm 11 W/m2
09:04 37.2 °F /  2.9 °C 34.0 °F /  1.1 °C 29.23 in /  989.7 hPa West 10.0 mph /  16.1 km/h 18.0 mph /  29 km/h 88 % 0.00 in /  0 mm 23 W/m2
09:12 37.0 °F /  2.8 °C 34.1 °F /  1.2 °C 29.24 in /  990.1 hPa West 12.0 mph /  19.3 km/h 21.0 mph /  33.8 km/h 89 % 0.01 in /  0.25 mm 65 W/m2
09:19 37.2 °F /  2.9 °C 34.6 °F /  1.4 °C 29.24 in /  990.1 hPa West 10.0 mph /  16.1 km/h 18.0 mph /  29 km/h 90 % 0.01 in /  0.25 mm 53 W/m2
09:27 37.4 °F /  3 °C 34.5 °F /  1.4 °C 29.24 in /  990.1 hPa WSW 9.0 mph /  14.5 km/h 16.0 mph /  25.7 km/h 89 % 0.01 in /  0.25 mm 83 W/m2
09:47 38.1 °F /  3.4 °C 34.9 °F /  1.6 °C 29.25 in /  990.4 hPa West 10.0 mph /  16.1 km/h 14.0 mph /  22.5 km/h 88 % 0.01 in /  0.25 mm 37 W/m2
09:57 37.8 °F /  3.2 °C 34.8 °F /  1.6 °C 29.25 in /  990.4 hPa WSW 11.0 mph /  17.7 km/h 18.0 mph /  29 km/h 89 % 0.01 in /  0.25 mm 54 W/m2
10:10 37.2 °F /  2.9 °C 34.6 °F /  1.4 °C 29.25 in /  990.4 hPa West 13.0 mph /  20.9 km/h 21.0 mph /  33.8 km/h 90 % 0.00 in /  0 mm 21 W/m2
10:27 39.0 °F /  3.9 °C 35.8 °F /  2.1 °C 29.25 in /  990.4 hPa West 17.0 mph /  27.4 km/h 23.0 mph /  37 km/h 88 % 0.00 in /  0 mm 350 W/m2
10:33 39.6 °F /  4.2 °C 36.0 °F /  2.2 °C 29.26 in /  990.7 hPa West 16.0 mph /  25.7 km/h 27.0 mph /  43.5 km/h 87 % 0.00 in /  0 mm 19 W/m2
10:39 38.8 °F /  3.8 °C 35.0 °F /  1.7 °C 29.26 in /  990.7 hPa West 18.0 mph /  29 km/h 29.0 mph /  46.7 km/h 86 % 0.01 in /  0.25 mm 7 W/m2
10:58 36.5 °F /  2.5 °C 33.8 °F /  1 °C 29.25 in /  990.4 hPa West 11.0 mph /  17.7 km/h 16.0 mph /  25.7 km/h 90 % 0.01 in /  0.25 mm 84 W/m2
11:40 37.9 °F /  3.3 °C 35.3 °F /  1.8 °C 29.23 in /  989.7 hPa West 15.0 mph /  24.1 km/h 25.0 mph /  40.2 km/h 90 % 0.02 in /  0.51 mm 229 W/m2
11:50 38.5 °F /  3.6 °C 35.5 °F /  1.9 °C 29.23 in /  989.7 hPa West 14.0 mph /  22.5 km/h 24.0 mph /  38.6 km/h 89 % 0.02 in /  0.51 mm 274 W/m2
12:11 39.4 °F /  4.1 °C 35.5 °F /  1.9 °C 29.24 in /  990.1 hPa West 14.0 mph /  22.5 km/h 21.0 mph /  33.8 km/h 86 % 0.02 in /  0.51 mm 84 W/m2
12:23 38.3 °F /  3.5 °C 34.8 °F /  1.6 °C 29.25 in /  990.4 hPa West 14.0 mph /  22.5 km/h 23.0 mph /  37 km/h 87 % 0.02 in /  0.51 mm 9 W/m2
12:41 36.3 °F /  2.4 °C 33.7 °F /  0.9 °C 29.24 in /  990.1 hPa West 9.0 mph /  14.5 km/h 18.0 mph /  29 km/h 90 % 0.02 in /  0.51 mm 51 W/m2
12:46 36.3 °F /  2.4 °C 33.9 °F /  1.1 °C 29.24 in /  990.1 hPa West 11.0 mph /  17.7 km/h 16.0 mph /  25.7 km/h 91 % 0.02 in /  0.51 mm 35 W/m2
13:04 36.7 °F /  2.6 °C 34.3 °F /  1.3 °C 29.24 in /  990.1 hPa WSW 11.0 mph /  17.7 km/h 18.0 mph /  29 km/h 91 % 0.02 in /  0.51 mm 18 W/m2
13:10 36.9 °F /  2.7 °C 34.8 °F /  1.6 °C 29.23 in /  989.7 hPa West 9.0 mph /  14.5 km/h 14.0 mph /  22.5 km/h 92 % 0.02 in /  0.51 mm 236 W/m2
13:16 37.2 °F /  2.9 °C 35.1 °F /  1.7 °C 29.23 in /  989.7 hPa West 8.0 mph /  12.9 km/h 12.0 mph /  19.3 km/h 92 % 0.02 in /  0.51 mm 81 W/m2
13:49 37.6 °F /  3.1 °C 34.3 °F /  1.3 °C 29.23 in /  989.7 hPa WSW 13.0 mph /  20.9 km/h 23.0 mph /  37 km/h 88 % 0.01 in /  0.25 mm 18 W/m2
14:00 36.5 °F /  2.5 °C 33.8 °F /  1 °C 29.24 in /  990.1 hPa West 15.0 mph /  24.1 km/h 26.0 mph /  41.8 km/h 90 % 0.01 in /  0.25 mm 25 W/m2
14:10 36.1 °F /  2.3 °C 33.8 °F /  1 °C 29.23 in /  989.7 hPa West 10.0 mph /  16.1 km/h 14.0 mph /  22.5 km/h 91 % 0.02 in /  0.51 mm 21 W/m2
14:16 36.3 °F /  2.4 °C 34.2 °F /  1.2 °C 29.24 in /  990.1 hPa WNW 10.0 mph /  16.1 km/h 15.0 mph /  24.1 km/h 92 % 0.02 in /  0.51 mm 5 W/m2
14:29 36.0 °F /  2.2 °C 33.9 °F /  1.1 °C 29.24 in /  990.1 hPa West 8.0 mph /  12.9 km/h 12.0 mph /  19.3 km/h 92 % 0.02 in /  0.51 mm 21 W/m2
14:43 35.6 °F /  2 °C 33.5 °F /  0.8 °C 29.22 in /  989.4 hPa WSW 10.0 mph /  16.1 km/h 16.0 mph /  25.7 km/h 92 % 0.02 in /  0.51 mm 76 W/m2
14:53 35.8 °F /  2.1 °C 33.7 °F /  0.9 °C 29.21 in /  989.1 hPa WSW 8.0 mph /  12.9 km/h 12.0 mph /  19.3 km/h 92 % 0.02 in /  0.51 mm 16 W/m2
15:18 36.1 °F /  2.3 °C 34.3 °F /  1.3 °C 29.21 in /  989.1 hPa West 8.0 mph /  12.9 km/h 11.0 mph /  17.7 km/h 93 % 0.01 in /  0.25 mm 46 W/m2
15:26 36.5 °F /  2.5 °C 34.7 °F /  1.5 °C 29.21 in /  989.1 hPa West 9.0 mph /  14.5 km/h 14.0 mph /  22.5 km/h 93 % 0.01 in /  0.25 mm 23 W/m2
15:35 36.7 °F /  2.6 °C 34.6 °F /  1.4 °C 29.20 in /  988.7 hPa WSW 11.0 mph /  17.7 km/h 16.0 mph /  25.7 km/h 92 % 0.01 in /  0.25 mm 16 W/m2
15:41 36.9 °F /  2.7 °C 34.5 °F /  1.4 °C 29.20 in /  988.7 hPa WSW 13.0 mph /  20.9 km/h 19.0 mph /  30.6 km/h 91 % 0.01 in /  0.25 mm 7 W/m2
15:54 37.0 °F /  2.8 °C 34.4 °F /  1.3 °C 29.19 in /  988.4 hPa WSW 10.0 mph /  16.1 km/h 15.0 mph /  24.1 km/h 90 % 0.00 in /  0 mm 11 W/m2
16:03 37.2 °F /  2.9 °C 34.0 °F /  1.1 °C 29.19 in /  988.4 hPa WSW 14.0 mph /  22.5 km/h 24.0 mph /  38.6 km/h 88 % 0.01 in /  0.25 mm 12 W/m2
16:17 37.6 °F /  3.1 °C 34.1 °F /  1.2 °C 29.19 in /  988.4 hPa West 12.0 mph /  19.3 km/h 22.0 mph /  35.4 km/h 87 % 0.01 in /  0.25 mm 5 W/m2
16:32 37.6 °F /  3.1 °C 33.8 °F /  1 °C 29.18 in /  988 hPa WSW 14.0 mph /  22.5 km/h 22.0 mph /  35.4 km/h 86 % 0.01 in /  0.25 mm 0 W/m2
16:42 37.6 °F /  3.1 °C 33.5 °F /  0.8 °C 29.17 in /  987.7 hPa WSW 19.0 mph /  30.6 km/h 27.0 mph /  43.5 km/h 85 % 0.01 in /  0.25 mm 0 W/m2
17:07 37.4 °F /  3 °C 33.3 °F /  0.7 °C 29.18 in /  988 hPa WSW 16.0 mph /  25.7 km/h 29.0 mph /  46.7 km/h 85 % 0.00 in /  0 mm 0 W/m2
17:13 37.6 °F /  3.1 °C 33.5 °F /  0.8 °C 29.18 in /  988 hPa WSW 16.0 mph /  25.7 km/h 24.0 mph /  38.6 km/h 85 % 0.00 in /  0 mm 0 W/m2
17:20 37.2 °F /  2.9 °C 33.1 °F /  0.6 °C 29.17 in /  987.7 hPa WSW 15.0 mph /  24.1 km/h 24.0 mph /  38.6 km/h 85 % 0.00 in /  0 mm 0 W/m2
17:36 37.2 °F /  2.9 °C 33.1 °F /  0.6 °C 29.18 in /  988 hPa WSW 15.0 mph /  24.1 km/h 26.0 mph /  41.8 km/h 85 % 0.00 in /  0 mm 0 W/m2
17:41 37.0 °F /  2.8 °C 33.2 °F /  0.7 °C 29.18 in /  988 hPa WSW 15.0 mph /  24.1 km/h 25.0 mph /  40.2 km/h 86 % 0.00 in /  0 mm 0 W/m2
17:59 36.5 °F /  2.5 °C 33.3 °F /  0.7 °C 29.18 in /  988 hPa WSW 17.0 mph /  27.4 km/h 26.0 mph /  41.8 km/h 88 % 0.00 in /  0 mm 0 W/m2
18:08 36.1 °F /  2.3 °C 32.9 °F /  0.5 °C 29.19 in /  988.4 hPa West 21.0 mph /  33.8 km/h 34.0 mph /  54.7 km/h 88 % 0.01 in /  0.25 mm 0 W/m2
18:21 35.2 °F /  1.8 °C 32.9 °F /  0.5 °C 29.18 in /  988 hPa WSW 16.0 mph /  25.7 km/h 26.0 mph /  41.8 km/h 91 % 0.01 in /  0.25 mm 0 W/m2
18:33 35.2 °F /  1.8 °C 32.9 °F /  0.5 °C 29.17 in /  987.7 hPa West 17.0 mph /  27.4 km/h 24.0 mph /  38.6 km/h 91 % 0.01 in /  0.25 mm 0 W/m2
18:43 35.8 °F /  2.1 °C 33.1 °F /  0.6 °C 29.19 in /  988.4 hPa West 16.0 mph /  25.7 km/h 25.0 mph /  40.2 km/h 90 % 0.01 in /  0.25 mm 0 W/m2
18:51 35.2 °F /  1.8 °C 32.6 °F /  0.3 °C 29.18 in /  988 hPa WSW 16.0 mph /  25.7 km/h 24.0 mph /  38.6 km/h 90 % 0.01 in /  0.25 mm 0 W/m2
19:06 34.9 °F /  1.6 °C 32.8 °F /  0.4 °C 29.19 in /  988.4 hPa West 16.0 mph /  25.7 km/h 24.0 mph /  38.6 km/h 92 % 0.00 in /  0 mm 0 W/m2
19:12 34.9 °F /  1.6 °C 32.8 °F /  0.4 °C 29.19 in /  988.4 hPa West 12.0 mph /  19.3 km/h 21.0 mph /  33.8 km/h 92 % 0.01 in /  0.25 mm 0 W/m2
19:25 34.7 °F /  1.5 °C 32.6 °F /  0.3 °C 29.20 in /  988.7 hPa West 9.0 mph /  14.5 km/h 14.0 mph /  22.5 km/h 92 % 0.01 in /  0.25 mm 0 W/m2
19:34 34.2 °F /  1.2 °C 32.3 °F /  0.2 °C 29.20 in /  988.7 hPa WSW 11.0 mph /  17.7 km/h 18.0 mph /  29 km/h 93 % 0.01 in /  0.25 mm 0 W/m2
19:39 34.0 °F /  1.1 °C 32.2 °F /  0.1 °C 29.20 in /  988.7 hPa West 8.0 mph /  12.9 km/h 13.0 mph /  20.9 km/h 93 % 0.01 in /  0.25 mm 0 W/m2
19:46 34.0 °F /  1.1 °C 32.4 °F /  0.2 °C 29.20 in /  988.7 hPa West 8.0 mph /  12.9 km/h 12.0 mph /  19.3 km/h 94 % 0.01 in /  0.25 mm 0 W/m2
19:51 34.0 °F /  1.1 °C 32.4 °F /  0.2 °C 29.20 in /  988.7 hPa West 10.0 mph /  16.1 km/h 15.0 mph /  24.1 km/h 94 % 0.02 in /  0.51 mm 0 W/m2
20:03 34.3 °F /  1.3 °C 32.8 °F /  0.4 °C 29.19 in /  988.4 hPa WSW 10.0 mph /  16.1 km/h 14.0 mph /  22.5 km/h 94 % 0.02 in /  0.51 mm 0 W/m2
20:13 34.3 °F /  1.3 °C 32.8 °F /  0.4 °C 29.20 in /  988.7 hPa West 10.0 mph /  16.1 km/h 16.0 mph /  25.7 km/h 94 % 0.02 in /  0.51 mm 0 W/m2
20:31 33.6 °F /  0.9 °C 32.1 °F /  0.1 °C 29.19 in /  988.4 hPa West 5.0 mph /  8 km/h 7.0 mph /  11.3 km/h 94 % 0.02 in /  0.51 mm 0 W/m2
20:53 33.4 °F /  0.8 °C 31.9 °F /  -0.1 °C 29.19 in /  988.4 hPa West 7.0 mph /  11.3 km/h 11.0 mph /  17.7 km/h 94 % 0.01 in /  0.25 mm 0 W/m2
21:05 33.6 °F /  0.9 °C 32.1 °F /  0.1 °C 29.19 in /  988.4 hPa West 9.0 mph /  14.5 km/h 14.0 mph /  22.5 km/h 94 % 0.01 in /  0.25 mm 0 W/m2
21:27 34.9 °F /  1.6 °C 32.8 °F /  0.4 °C 29.19 in /  988.4 hPa West 10.0 mph /  16.1 km/h 20.0 mph /  32.2 km/h 92 % 0.00 in /  0 mm 0 W/m2
21:45 35.2 °F /  1.8 °C 32.6 °F /  0.3 °C 29.20 in /  988.7 hPa WSW 15.0 mph /  24.1 km/h 24.0 mph /  38.6 km/h 90 % 0.00 in /  0 mm 0 W/m2
21:54 35.2 °F /  1.8 °C 32.6 °F /  0.3 °C 29.20 in /  988.7 hPa WSW 15.0 mph /  24.1 km/h 23.0 mph /  37 km/h 90 % 0.01 in /  0.25 mm 0 W/m2
22:00 35.1 °F /  1.7 °C 32.4 °F /  0.2 °C 29.20 in /  988.7 hPa West 12.0 mph /  19.3 km/h 21.0 mph /  33.8 km/h 90 % 0.01 in /  0.25 mm 0 W/m2
22:06 34.7 °F /  1.5 °C 32.3 °F /  0.2 °C 29.21 in /  989.1 hPa WSW 10.0 mph /  16.1 km/h 16.0 mph /  25.7 km/h 91 % 0.01 in /  0.25 mm 0 W/m2
22:24 34.2 °F /  1.2 °C 32.1 °F /  0.1 °C 29.21 in /  989.1 hPa West 9.0 mph /  14.5 km/h 14.0 mph /  22.5 km/h 92 % 0.01 in /  0.25 mm 0 W/m2
22:31 34.0 °F /  1.1 °C 32.2 °F /  0.1 °C 29.21 in /  989.1 hPa WSW 10.0 mph /  16.1 km/h 14.0 mph /  22.5 km/h 93 % 0.01 in /  0.25 mm 0 W/m2
22:57 33.6 °F /  0.9 °C 32.1 °F /  0.1 °C 29.23 in /  989.7 hPa WNW 10.0 mph /  16.1 km/h 18.0 mph /  29 km/h 94 % 0.00 in /  0 mm 0 W/m2
23:17 33.4 °F /  0.8 °C 31.9 °F /  -0.1 °C 29.22 in /  989.4 hPa West 9.0 mph /  14.5 km/h 14.0 mph /  22.5 km/h 94 % 0.00 in /  0 mm 0 W/m2
23:37 34.0 °F /  1.1 °C 32.2 °F /  0.1 °C 29.22 in /  989.4 hPa West 12.0 mph /  19.3 km/h 23.0 mph /  37 km/h 93 % 0.00 in /  0 mm 0 W/m2
Delerius-Weather
Compliments of Weather Underground - 1.25 mb

Data updates at regular intervals.